Metar del Interior

METAR SGME 260900Z 21018KT 9999 BKN020 OVC080 28/20 Q1005=
METAR SGLV 260900Z 36002KT CAVOK 28/23 Q1006=
METAR SGPJ 260900Z 36016KT 9999 TS FEW040CB BKN070 26/22 Q1007=
METAR SGPC 260900Z 18012KT 9999 TS FEW040CB OVC070 21/21 Q1006=
METAR SGCO 260900Z 19015KT 3000 -TSRA OVC013 FEW040CB 22/20 Q1008=
METAR SGSP 260900Z 23020KT 5000 -TSRA OVC007 FEW040CB 21/19 Q1006=
METAR SGGR 260900Z 05002KT CAVOK 22/19 Q1003=
METAR SGVR 260900Z NIL=
METAR SGPI 260900Z 14004KT 9999 OVC010 23/16 Q1006=
METAR SGSJ 260900Z 18004KT 9999 -RA FEW007 OVC010 23/19 Q1003=

TAF

TAF SGAS 261015Z 2612/2712 20015KT 8000 -TSRA BKN015 FEW040CB TN16/2709Z TX25/2619Z
 BECMG 2613/2616 9000 -RA BKN020 BECMG 2618/2621 18010KT 9999 BKN020
BECMG 2700/2703 CAVOK TEMPO PROB30 2707/2710 7000 NSC=

TAF SGES 261015Z 2612/2712 24020KT 4000 TSRA OVC015 FEW040CB TN16/2709Z TX25/2619Z
BECMG 2615/2618 6000 -TSRA OVC020 FEW040CB BECMG 2622/2700 18015KT 8000 -RA BKN027 FEW040CB

TAF SGEN 261015Z 2612/2712 20015KT 7000 -RA OVC020 TN15/2709Z TX24/2619Z
BECMG 2613/2616 18010KT 8000 -RA BKN020 BECMG 2618/2621 9000 BKN027
BECMG 2700/2703 CAVOK TEMPO PROB 2708/2711 7000 NSC=

TAF SGCO 260445Z 2606/2706 07010KT 9999 TS BKN033 FEW040CB TN21/2609Z TX28/2619Z
BECMG 2609/2612 23020G35KT 4000 TSRA BKN010 FEW040CB BECMG 2615/2618 9999 TSRA BKN015 FEW040CB=

La siguiente información es orientativa, no constituyendo documentación de vuelo. Para disponer de la misma se deberá solicitar a la Oficina Vigilancia Meteorológica (OVM) / Oficina ARO/AIS (Aeronautical Report Office/Aeronautical Information Service) del aeródromo de salida. Asimismo la Dirección de Meteorología e Hidrología no se responsabiliza por los perjuicios que pudieran ocasionarse a los "usuarios" y/o a terceros y/o a bienes, debido a las acciones o decisiones adoptadas o dejadas de adoptar en función de la información meteorológica suministrada.